KLHZ

Details ICAO KLHZ
Name FRANKLIN CO
Region United States
Timezone America/New_York (UTC-5.0)
Plans Departing 18
Arriving 5
Stats Elevation 369 ft / 112 m (AMSL)
Location 36.023345° -78.330272°
Runways 1
Magnetic Variation 9.491° W
Sunrise 2017-12-10 12:14:43 UTC / 2017-12-10 07:14:43 Local
Sunset 2017-12-10 22:00:39 UTC / 2017-12-10 17:00:39 Local
Advertisement - Login to hide

Runways

ID Width Length Bearing (true) Bearing (mag) Surface Threshold Offset Overrun Length
05 100 ft / 30 m 5,503 ft / 1,677 m 40.86° 50.35° Asphalt 0 ft / 0 m 0 ft / 0 m
23 100 ft / 30 m 5,503 ft / 1,677 m 220.86° 230.35° Asphalt 0 ft / 0 m 0 ft / 0 m

Map

Weather


0- 5 10 15 20 25 30 35+ Temperature / ° C

Clouds and Precipitation
Forecast for 2017-12-11 06:00 UTC. Updated an hour ago

Ground ~20,000 ft ~40,000 ft Winds

METAR

KLHZ 110400Z AUTO 19003KT 10SM CLR M01/M03 A3016 RMK AO2

TAF

Not found

Frequencies

Recorded 118.32 MHz AWOS 3
Approach 125.30 MHz RALEIGH APP/DEP
Unicom 123.00 MHz CTAF/UNICOM
Warning: Do not use this data for real-world aviation or navigation. No guarantee of current accuracy is given.